Time;durP1;ratioP1;P1;durP2;ratioP2;P2;SDS_P1;SDS_P2;PMS_P1;PMS_P2;Temp;Humidity;BMP_temperature;BMP_pressure;BME280_temperature;BME280_humidity;BME280_pressure;Samples;Min_cycle;Max_cycle;Signal;HPM_P1;HPM_P2
2022/10/02 00:02:05;;;;;;;4.90;1.43;;;;;;;14.38;90.16;100656.41;5052154;28;20887;-74
2022/10/02 00:04:38;;;;;;;6.93;1.42;;;;;;;14.39;90.08;100643.63;5034394;28;20428;-74
2022/10/02 00:07:08;;;;;;;3.88;1.20;;;;;;;14.36;90.34;100671.38;5050849;28;20484;-74
2022/10/02 00:09:43;;;;;;;5.63;1.10;;;;;;;14.36;90.35;100669.47;5052080;28;20410;-74
2022/10/02 00:12:13;;;;;;;4.55;1.60;;;;;;;14.38;90.13;100670.06;5036069;28;20389;-74
2022/10/02 00:14:41;;;;;;;6.22;1.13;;;;;;;14.39;89.94;100677.13;5052242;28;20381;-74
2022/10/02 00:17:17;;;;;;;6.07;1.00;;;;;;;14.40;90.26;100695.13;5034304;28;20420;-74
2022/10/02 00:19:42;;;;;;;5.32;1.20;;;;;;;14.41;89.87;100696.78;5050619;28;20876;-74
2022/10/02 00:22:25;;;;;;;4.95;1.02;;;;;;;14.44;90.06;100689.97;5051810;28;20450;-74
2022/10/02 00:24:50;;;;;;;8.70;1.40;;;;;;;14.46;89.69;100685.06;5050502;28;20462;-74
2022/10/02 00:27:39;;;;;;;2.30;1.03;;;;;;;14.47;89.67;100693.00;5052004;28;20386;-74
2022/10/02 00:30:05;;;;;;;4.13;1.00;;;;;;;14.47;89.69;100703.91;5051941;28;20378;-74
2022/10/02 00:32:35;;;;;;;4.22;1.13;;;;;;;14.46;89.93;100696.81;5032685;28;20819;-74
2022/10/02 00:35:24;;;;;;;2.60;0.90;;;;;;;14.44;89.79;100707.16;5051947;28;20389;-74
2022/10/02 00:38:12;;;;;;;5.57;1.08;;;;;;;14.48;89.51;100702.00;5051860;28;20386;-74
2022/10/02 00:40:57;;;;;;;5.22;1.38;;;;;;;14.50;89.78;100708.81;5050844;28;20999;-74
2022/10/02 00:43:32;;;;;;;6.80;1.53;;;;;;;14.47;89.66;100714.81;5050014;28;20385;-74
2022/10/02 00:46:48;;;;;;;2.47;1.00;;;;;;;14.49;89.59;100719.97;5051767;28;20764;-74
2022/10/02 00:49:31;;;;;;;5.78;1.20;;;;;;;14.44;89.82;100720.78;5028767;28;20390;-74
2022/10/02 00:52:07;;;;;;;7.03;1.13;;;;;;;14.42;89.81;100717.50;5051494;28;20822;-74
2022/10/02 00:55:10;;;;;;;6.40;1.60;;;;;;;14.43;89.68;100726.50;5037388;28;20444;-74
2022/10/02 00:57:55;;;;;;;4.15;1.17;;;;;;;14.40;89.80;100716.94;5046195;28;20408;-74
2022/10/02 01:00:21;;;;;;;5.28;1.92;;;;;;;14.38;90.02;100710.94;5042246;28;20788;-74
2022/10/02 01:03:07;;;;;;;6.93;1.15;;;;;;;14.41;89.62;100707.69;5051583;28;20481;-74
2022/10/02 01:05:33;;;;;;;7.10;1.75;;;;;;;14.43;89.40;100705.50;5051455;28;20488;-74
2022/10/02 01:07:59;;;;;;;6.20;1.60;;;;;;;14.47;89.42;100700.34;5047797;28;20413;-74
2022/10/02 01:10:26;;;;;;;5.40;1.60;;;;;;;14.45;89.38;100697.91;5049656;28;20418;-74
2022/10/02 01:12:53;;;;;;;5.25;1.17;;;;;;;14.48;89.51;100702.84;5051480;28;20385;-74
2022/10/02 01:15:21;;;;;;;8.13;2.10;;;;;;;14.49;89.01;100707.19;5051396;28;20385;-74
2022/10/02 01:17:49;;;;;;;3.50;1.45;;;;;;;14.49;88.99;100693.53;5065671;28;20478;-74
2022/10/02 01:20:38;;;;;;;5.85;1.40;;;;;;;14.50;89.21;100692.47;5048496;28;20409;-74
2022/10/02 01:23:25;;;;;;;7.63;1.70;;;;;;;14.50;88.77;100703.38;5055333;28;20389;-74
2022/10/02 01:25:50;;;;;;;5.07;1.60;;;;;;;14.51;89.05;100710.47;5054066;28;20415;-74
2022/10/02 01:28:17;;;;;;;5.13;1.10;;;;;;;14.49;89.20;100703.63;5055518;28;20390;-74
2022/10/02 01:30:47;;;;;;;8.87;1.70;;;;;;;14.47;89.14;100697.63;5052278;28;20940;-74
2022/10/02 01:33:15;;;;;;;8.25;1.48;;;;;;;14.50;89.10;100706.09;5060375;28;20466;-74
2022/10/02 01:35:41;;;;;;;6.40;1.60;;;;;;;14.52;89.16;100708.56;5055104;28;20401;-74
2022/10/02 01:38:09;;;;;;;8.17;1.47;;;;;;;14.52;88.54;100709.38;5055230;28;20389;-74
2022/10/02 01:40:37;;;;;;;7.32;1.65;;;;;;;14.53;88.50;100713.75;5055080;28;20484;-74
2022/10/02 01:43:10;;;;;;;11.48;1.33;;;;;;;14.53;88.80;100702.00;5053847;28;20406;-74
2022/10/02 01:45:45;;;;;;;7.18;1.38;;;;;;;14.54;88.83;100701.75;5055035;28;20932;-74
2022/10/02 01:48:20;;;;;;;6.68;1.38;;;;;;;14.54;88.64;100695.47;5055082;28;20536;-74
2022/10/02 01:51:00;;;;;;;7.38;1.42;;;;;;;14.55;88.64;100703.38;5063831;28;20847;-74
2022/10/02 01:53:39;;;;;;;7.70;1.40;;;;;;;14.54;88.64;100699.03;5054307;28;20389;-74
2022/10/02 01:56:25;;;;;;;6.07;1.33;;;;;;;14.59;88.65;100705.63;5042986;28;20491;-74
2022/10/02 01:59:09;;;;;;;3.65;1.50;;;;;;;14.57;88.69;100708.59;5054847;28;20393;-74
2022/10/02 02:02:02;;;;;;;4.72;1.67;;;;;;;14.59;88.23;100706.41;5041696;28;20429;-74
2022/10/02 02:04:37;;;;;;;7.72;2.03;;;;;;;14.58;88.40;100702.06;5054705;28;20423;-74
2022/10/02 02:07:13;;;;;;;8.23;2.10;;;;;;;14.59;88.27;100700.16;5035907;28;20428;-74
2022/10/02 02:09:55;;;;;;;5.95;1.50;;;;;;;14.58;88.47;100690.31;5053471;28;20868;-74
2022/10/02 02:12:30;;;;;;;7.50;1.45;;;;;;;14.58;88.54;100685.69;5052207;28;20737;-74
2022/10/02 02:15:03;;;;;;;7.97;1.60;;;;;;;14.58;88.42;100687.59;5053264;28;20423;-74
2022/10/02 02:17:45;;;;;;;5.10;1.67;;;;;;;14.57;88.50;100694.13;5053285;28;20389;-74
2022/10/02 02:20:38;;;;;;;8.40;1.20;;;;;;;14.57;88.29;100697.69;5035361;28;20749;-74
2022/10/02 02:23:07;;;;;;;5.43;1.48;;;;;;;14.58;88.53;100706.69;5053233;28;20429;-74
2022/10/02 02:25:38;;;;;;;9.77;1.70;;;;;;;14.60;88.45;100704.50;5033570;28;20425;-74
2022/10/02 02:28:08;;;;;;;7.50;1.50;;;;;;;14.59;88.63;100695.50;5053074;28;20390;-74
2022/10/02 02:30:37;;;;;;;6.57;1.80;;;;;;;14.60;88.31;100693.59;5053043;28;20883;-74
2022/10/02 02:33:31;;;;;;;13.38;1.55;;;;;;;14.63;88.25;100693.88;5034874;28;20476;-74
2022/10/02 02:36:03;;;;;;;4.40;1.30;;;;;;;14.64;88.16;100702.91;5053067;28;20386;-74
2022/10/02 02:38:36;;;;;;;7.88;1.60;;;;;;;14.63;88.29;100702.06;5051724;28;20417;-73
2022/10/02 02:41:11;;;;;;;5.43;1.52;;;;;;;14.63;88.25;100704.78;5041512;28;20405;-74
2022/10/02 02:43:46;;;;;;;7.32;1.48;;;;;;;14.64;88.26;100708.34;5044034;28;20405;-74
2022/10/02 02:46:32;;;;;;;6.55;1.23;;;;;;;14.66;88.13;100704.25;5051515;28;20417;-74
2022/10/02 02:49:07;;;;;;;5.53;1.83;;;;;;;14.66;88.29;100709.72;5034844;28;20943;-74
2022/10/02 02:51:39;;;;;;;7.80;1.80;;;;;;;14.67;88.21;100710.53;5052890;28;20467;-74
2022/10/02 02:54:27;;;;;;;6.40;1.90;;;;;;;14.67;88.24;100703.19;5033306;28;20906;-74
2022/10/02 02:56:57;;;;;;;5.72;1.70;;;;;;;14.67;88.06;100707.81;5052624;28;20460;-74
2022/10/02 02:59:27;;;;;;;9.05;1.40;;;;;;;14.68;87.90;100706.75;5053308;28;20401;-74
2022/10/02 03:01:52;;;;;;;8.10;1.17;;;;;;;14.68;87.80;100713.03;5052791;28;20373;-74
2022/10/02 03:04:18;;;;;;;4.47;1.57;;;;;;;14.67;88.06;100718.72;5052422;28;20451;-74
2022/10/02 03:08:49;;;;;;;9.75;1.75;;;;;;;14.65;88.00;100719.00;5066391;28;20632;-74
2022/10/02 03:11:35;;;;;;;8.47;1.60;;;;;;;14.66;87.99;100717.06;5050659;28;20434;-74
2022/10/02 03:14:29;;;;;;;6.68;2.40;;;;;;;14.67;87.75;100716.00;5049482;28;20422;-74
2022/10/02 03:17:27;;;;;;;7.47;2.90;;;;;;;14.68;87.82;100707.56;5049127;28;20928;-74
2022/10/02 03:20:16;;;;;;;8.65;1.83;;;;;;;14.67;87.87;100714.09;5049088;28;20393;-74
2022/10/02 03:22:53;;;;;;;5.55;1.88;;;;;;;14.68;87.96;100709.47;5029843;28;20412;-74
2022/10/02 03:25:30;;;;;;;11.57;1.85;;;;;;;14.67;87.93;100699.63;5046981;28;20429;-74
2022/10/02 03:28:05;;;;;;;7.68;2.00;;;;;;;14.68;87.80;100704.00;5035977;28;20414;-74
2022/10/02 03:30:31;;;;;;;6.85;1.75;;;;;;;14.68;87.94;100706.75;5050330;28;20394;-74
2022/10/02 03:32:59;;;;;;;4.85;1.38;;;;;;;14.66;87.98;100704.25;5039054;28;20381;-74
2022/10/02 03:35:26;;;;;;;5.97;1.20;;;;;;;14.65;88.36;100718.19;5045422;28;20409;-74
2022/10/02 03:37:55;;;;;;;3.30;0.95;;;;;;;14.64;88.53;100720.09;5036656;28;20391;-74
2022/10/02 03:40:25;;;;;;;6.45;1.42;;;;;;;14.65;88.55;100713.56;5048692;28;20469;-74
2022/10/02 03:42:51;;;;;;;4.25;1.17;;;;;;;14.66;88.28;100730.72;5050184;28;20421;-74
2022/10/02 03:45:17;;;;;;;8.67;1.63;;;;;;;14.65;88.47;100729.09;5051584;28;20394;-74
2022/10/02 03:47:43;;;;;;;4.32;1.35;;;;;;;14.63;88.60;100732.06;5050126;28;20417;-74
2022/10/02 03:50:10;;;;;;;9.50;2.17;;;;;;;14.63;88.72;100729.34;5046520;28;20403;-74
2022/10/02 03:52:36;;;;;;;10.63;1.63;;;;;;;14.62;88.93;100743.25;5049882;28;20398;-74
2022/10/02 03:55:08;;;;;;;5.20;1.20;;;;;;;14.61;89.04;100747.06;5051601;28;20758;-74
2022/10/02 03:57:34;;;;;;;7.75;1.42;;;;;;;14.61;89.17;100750.63;5049774;28;20399;-74
2022/10/02 04:00:06;;;;;;;6.72;1.40;;;;;;;14.58;89.54;100750.31;5040359;28;20394;-74
2022/10/02 04:02:41;;;;;;;7.30;1.60;;;;;;;14.55;89.94;100743.50;5049772;28;20888;-74
2022/10/02 04:05:27;;;;;;;6.63;1.42;;;;;;;14.54;90.09;100741.84;5047036;28;20400;-74
2022/10/02 04:07:56;;;;;;;7.28;1.35;;;;;;;14.53;90.19;100743.75;5062248;28;20413;-75
2022/10/02 04:10:39;;;;;;;5.70;1.00;;;;;;;14.53;90.51;100740.19;5069384;28;20725;-75
2022/10/02 04:13:31;;;;;;;4.65;1.40;;;;;;;14.55;90.31;100730.66;5068780;28;20396;-74
2022/10/02 04:16:14;;;;;;;5.65;1.50;;;;;;;14.57;90.31;100729.59;5049922;28;20433;-75
2022/10/02 04:18:49;;;;;;;7.43;1.35;;;;;;;14.59;90.16;100721.97;5045074;28;20432;-74
2022/10/02 04:21:26;;;;;;;5.15;1.20;;;;;;;14.58;90.33;100721.16;5055931;28;20412;-75
2022/10/02 04:24:01;;;;;;;9.73;1.43;;;;;;;14.59;90.56;100711.84;5049137;28;20384;-74
2022/10/02 04:26:34;;;;;;;8.10;1.75;;;;;;;14.57;90.39;100718.69;5057424;28;20381;-74
2022/10/02 04:29:14;;;;;;;5.32;1.88;;;;;;;14.54;90.77;100715.41;5042236;28;20390;-75
2022/10/02 04:31:39;;;;;;;8.70;2.30;;;;;;;14.54;90.93;100717.31;5055897;28;20439;-75
2022/10/02 04:34:09;;;;;;;4.25;1.40;;;;;;;14.54;90.93;100709.94;5054564;28;20850;-75
2022/10/02 04:36:52;;;;;;;6.70;1.40;;;;;;;14.55;90.81;100721.69;5054213;28;20392;-75
2022/10/02 04:39:38;;;;;;;7.68;1.98;;;;;;;14.53;90.80;100719.22;5053993;28;20378;-75
2022/10/02 04:42:29;;;;;;;3.80;1.65;;;;;;;14.57;90.73;100727.69;5052650;28;20381;-75
2022/10/02 04:45:27;;;;;;;4.38;1.40;;;;;;;14.57;90.69;100724.94;5042959;28;20769;-75
2022/10/02 04:48:02;;;;;;;6.05;1.83;;;;;;;14.55;90.91;100729.88;5055413;28;20471;-75
2022/10/02 04:50:36;;;;;;;1.80;1.20;;;;;;;14.53;90.91;100726.56;5054467;28;20432;-75
2022/10/02 04:53:19;;;;;;;4.10;1.33;;;;;;;14.52;90.80;100719.47;5055401;28;20394;-75
2022/10/02 04:55:56;;;;;;;2.78;1.65;;;;;;;14.51;91.29;100728.75;5049697;28;20467;-75
2022/10/02 04:59:18;;;;;;;8.45;1.60;;;;;;;14.51;91.09;100713.22;5044483;28;20760;-75
2022/10/02 05:01:57;;;;;;;7.05;1.70;;;;;;;14.50;91.44;100713.47;4968053;28;20425;-75
2022/10/02 05:04:39;;;;;;;4.82;1.25;;;;;;;14.45;91.23;100725.19;4972137;28;20424;-75
2022/10/02 05:07:42;;;;;;;8.38;2.03;;;;;;;14.42;91.78;100717.50;5026292;28;20778;-75
2022/10/02 05:10:25;;;;;;;7.15;1.60;;;;;;;14.41;91.81;100725.97;4978341;28;20412;-75
2022/10/02 05:13:03;;;;;;;9.70;1.67;;;;;;;14.39;91.98;100722.69;5041228;28;20411;-74
2022/10/02 05:15:44;;;;;;;11.20;1.98;;;;;;;14.40;92.11;100727.84;5036785;28;20470;-75
2022/10/02 05:18:39;;;;;;;5.60;2.35;;;;;;;14.42;91.94;100733.06;5050912;28;20405;-75
2022/10/02 05:21:34;;;;;;;5.30;2.03;;;;;;;14.40;91.87;100744.22;5048620;28;20414;-74
2022/10/02 05:24:15;;;;;;;6.82;2.20;;;;;;;14.38;92.25;100742.84;5034408;28;20484;-75
2022/10/02 05:26:53;;;;;;;7.78;2.13;;;;;;;14.36;92.49;100739.53;5050223;28;20408;-75
2022/10/02 05:29:33;;;;;;;6.22;1.88;;;;;;;14.34;92.45;100747.16;5055511;28;20396;-75
2022/10/02 05:32:30;;;;;;;8.32;2.22;;;;;;;14.31;92.55;100743.03;5033707;28;20406;-75
2022/10/02 05:35:04;;;;;;;9.00;1.63;;;;;;;14.31;92.93;100747.66;5034703;28;20415;-75
2022/10/02 05:37:41;;;;;;;8.55;1.77;;;;;;;14.30;92.96;100749.56;5040010;28;20408;-75
2022/10/02 05:40:16;;;;;;;7.05;1.58;;;;;;;14.32;92.83;100743.88;5050544;28;20401;-75
2022/10/02 05:43:02;;;;;;;10.02;1.92;;;;;;;14.29;92.83;100747.13;5054471;28;20395;-76
2022/10/02 05:45:38;;;;;;;8.48;1.48;;;;;;;14.30;93.11;100738.66;5033925;28;20409;-76
2022/10/02 05:48:28;;;;;;;11.00;2.10;;;;;;;14.28;93.17;100738.13;5050813;28;20425;-76
2022/10/02 05:51:11;;;;;;;9.27;1.98;;;;;;;14.24;93.36;100741.63;5034024;28;20438;-76
2022/10/02 05:53:45;;;;;;;6.50;1.30;;;;;;;14.23;93.23;100718.97;5046335;28;20413;-76
2022/10/02 05:56:22;;;;;;;8.57;1.48;;;;;;;14.20;93.42;100718.69;5032202;28;20437;-75
2022/10/02 05:59:00;;;;;;;16.95;4.57;;;;;;;14.14;93.67;100717.00;5049941;28;20420;-76
2022/10/02 06:01:34;;;;;;;8.57;2.30;;;;;;;14.18;93.53;100707.22;5039252;28;20494;-76
2022/10/02 06:04:11;;;;;;;18.45;5.75;;;;;;;14.21;93.33;100699.34;5052204;28;20472;-75
2022/10/02 06:06:43;;;;;;;12.40;3.65;;;;;;;14.19;93.14;100689.81;5047123;28;20745;-76
2022/10/02 06:09:23;;;;;;;19.80;7.68;;;;;;;14.14;93.18;100698.75;5042263;28;20403;-74
2022/10/02 06:12:02;;;;;;;13.05;5.95;;;;;;;14.14;93.39;100704.22;5051190;28;20391;-74
2022/10/02 06:14:34;;;;;;;12.57;4.45;;;;;;;14.11;93.38;100714.81;5048294;28;20412;-74
2022/10/02 06:17:02;;;;;;;11.25;3.42;;;;;;;14.11;93.61;100704.75;5027999;28;20922;-74
2022/10/02 06:19:53;;;;;;;12.27;3.08;;;;;;;14.18;93.23;100710.78;5050030;28;20397;-74
2022/10/02 06:22:23;;;;;;;4.70;2.20;;;;;;;14.19;93.38;100709.72;5043842;28;20413;-74
2022/10/02 06:24:51;;;;;;;11.02;4.30;;;;;;;14.18;93.07;100710.78;5040655;28;20433;-73
2022/10/02 06:27:30;;;;;;;7.40;2.88;;;;;;;14.16;93.37;100720.31;5047095;28;20412;-73
2022/10/02 06:30:02;;;;;;;6.47;2.70;;;;;;;14.16;93.25;100712.13;5036276;28;20893;-73
2022/10/02 06:32:47;;;;;;;15.18;4.70;;;;;;;14.14;93.46;100708.84;5044511;28;20410;-73
2022/10/02 06:35:19;;;;;;;7.40;1.95;;;;;;;14.19;93.49;100697.97;5055686;28;20395;-73
2022/10/02 06:38:29;;;;;;;7.38;1.58;;;;;;;14.26;92.99;100698.56;5053558;28;20465;-74
2022/10/02 06:40:59;;;;;;;4.65;1.00;;;;;;;14.28;92.93;100704.56;5044425;28;20907;-73
2022/10/02 06:43:43;;;;;;;5.93;1.50;;;;;;;14.28;92.45;100710.84;5052179;28;20545;-73
2022/10/02 06:46:51;;;;;;;7.13;2.00;;;;;;;14.26;92.77;100702.09;5054084;28;20884;-73
2022/10/02 06:49:28;;;;;;;7.90;3.00;;;;;;;14.25;93.10;100691.47;5042417;28;20414;-72
2022/10/02 06:52:04;;;;;;;7.80;2.22;;;;;;;14.29;92.88;100692.59;5039033;28;20403;-73
2022/10/02 06:54:47;;;;;;;6.40;3.30;;;;;;;14.27;92.83;100683.84;5041998;28;20953;-73
2022/10/02 06:57:22;;;;;;;6.28;3.00;;;;;;;14.25;92.86;100684.13;5047257;28;20902;-73
2022/10/02 07:00:02;;;;;;;6.27;2.70;;;;;;;14.25;92.97;100681.41;5034832;28;20440;-73
2022/10/02 07:02:27;;;;;;;7.25;2.35;;;;;;;14.25;93.13;100675.94;5039844;28;20397;-73
2022/10/02 07:05:15;;;;;;;7.77;2.97;;;;;;;14.24;92.76;100685.19;5052458;28;20402;-73
2022/10/02 07:07:57;;;;;;;11.47;4.33;;;;;;;14.27;93.09;100683.84;5041233;28;20552;-73
2022/10/02 07:10:55;;;;;;;7.28;3.17;;;;;;;14.26;93.26;100688.47;5039884;28;20405;-72
2022/10/02 07:13:27;;;;;;;7.63;2.92;;;;;;;14.27;92.84;100678.38;5044172;28;20422;-73
2022/10/02 07:16:28;;;;;;;9.10;3.40;;;;;;;14.29;93.19;100676.25;5034489;28;20413;-73
2022/10/02 07:19:24;;;;;;;10.73;5.25;;;;;;;14.30;93.16;100681.41;5033294;28;20423;-73
2022/10/02 07:21:58;;;;;;;7.60;3.05;;;;;;;14.30;93.27;100673.22;5041892;28;20409;-75
2022/10/02 07:25:00;;;;;;;5.07;2.15;;;;;;;14.27;93.15;100670.22;5048046;28;20413;-75
2022/10/02 07:27:39;;;;;;;5.85;1.25;;;;;;;14.30;93.22;100664.22;5043022;28;20407;-74
2022/10/02 07:30:09;;;;;;;4.05;1.48;;;;;;;14.33;93.03;100660.97;5044096;28;20471;-75
2022/10/02 07:33:06;;;;;;;4.68;1.65;;;;;;;14.38;92.96;100667.31;5034008;28;20391;-75
2022/10/02 07:35:38;;;;;;;3.90;1.80;;;;;;;14.39;92.89;100654.53;5039189;28;20400;-73
2022/10/02 07:38:18;;;;;;;7.05;1.67;;;;;;;14.41;93.09;100650.44;5023116;28;20467;-75
2022/10/02 07:41:13;;;;;;;3.80;1.33;;;;;;;14.47;92.75;100651.25;5043159;28;20410;-75
2022/10/02 07:44:03;;;;;;;6.95;1.60;;;;;;;14.47;92.71;100646.63;5043299;28;20398;-75
2022/10/02 07:46:44;;;;;;;3.35;1.30;;;;;;;14.45;92.65;100642.53;5044794;28;20413;-75
2022/10/02 07:49:35;;;;;;;4.32;1.30;;;;;;;14.47;92.89;100651.25;5051510;28;20872;-75
2022/10/02 07:52:16;;;;;;;5.53;1.20;;;;;;;14.44;92.89;100636.25;5052243;28;20473;-75
2022/10/02 07:55:07;;;;;;;3.63;1.00;;;;;;;14.44;92.89;100646.34;5053275;28;20405;-75
2022/10/02 07:57:53;;;;;;;3.08;1.05;;;;;;;14.44;92.95;100654.53;5044092;28;20466;-74
2022/10/02 08:00:23;;;;;;;5.82;1.27;;;;;;;14.44;92.95;100651.81;5035063;28;20410;-74
2022/10/02 08:03:05;;;;;;;2.75;1.08;;;;;;;14.43;93.27;100658.34;5052669;28;20408;-75
2022/10/02 08:05:39;;;;;;;4.32;1.27;;;;;;;14.44;93.25;100652.63;5047313;28;20440;-76
2022/10/02 08:08:22;;;;;;;2.35;1.00;;;;;;;14.50;92.98;100651.56;5030766;28;20453;-75
2022/10/02 08:11:08;;;;;;;2.92;1.20;;;;;;;14.55;92.80;100658.97;5071428;28;20426;-74
2022/10/02 08:14:13;;;;;;;3.80;1.50;;;;;;;14.59;92.75;100657.31;5053939;28;20424;-74
2022/10/02 08:16:45;;;;;;;3.10;1.17;;;;;;;14.62;92.48;100656.78;5053515;28;20411;-75
2022/10/02 08:19:18;;;;;;;4.43;1.90;;;;;;;14.65;92.34;100653.53;5036690;28;20393;-74
2022/10/02 08:21:57;;;;;;;5.65;1.50;;;;;;;14.62;92.21;100661.44;5028189;28;20391;-74
2022/10/02 08:24:27;;;;;;;7.00;2.45;;;;;;;14.60;92.70;100658.13;5054515;28;20401;-75
2022/10/02 08:27:04;;;;;;;5.47;3.83;;;;;;;14.60;92.79;100649.97;5041244;28;20898;-74
2022/10/02 08:29:40;;;;;;;3.40;2.50;;;;;;;14.58;92.99;100652.13;5046980;28;20473;-74
2022/10/02 08:32:12;;;;;;;6.50;3.22;;;;;;;14.59;92.60;100654.59;5045239;28;20383;-74
2022/10/02 08:34:39;;;;;;;6.05;3.28;;;;;;;14.59;92.60;100668.22;5056353;28;20393;-74
2022/10/02 08:37:13;;;;;;;6.77;3.00;;;;;;;14.60;92.51;100664.41;5044124;28;20846;-74
2022/10/02 08:39:57;;;;;;;8.13;2.80;;;;;;;14.55;92.51;100681.56;5043207;28;20432;-74
2022/10/02 08:42:44;;;;;;;8.32;2.20;;;;;;;14.50;92.69;100684.28;5050427;28;20403;-74
2022/10/02 08:45:55;;;;;;;7.30;2.92;;;;;;;14.52;92.73;100686.75;5055621;28;20393;-75
2022/10/02 08:48:37;;;;;;;4.63;2.00;;;;;;;14.52;92.85;100671.19;4988082;28;20416;-74
2022/10/02 08:51:35;;;;;;;5.40;2.55;;;;;;;14.59;92.59;100681.06;5053778;28;20401;-74
2022/10/02 08:54:19;;;;;;;8.73;2.35;;;;;;;14.62;92.52;100677.81;5056507;28;20481;-75
2022/10/02 08:57:12;;;;;;;4.77;2.83;;;;;;;14.62;92.32;100686.00;5036871;28;20510;-75
2022/10/02 09:00:06;;;;;;;5.72;2.75;;;;;;;14.60;92.61;100669.03;5055334;28;20389;-75
2022/10/02 09:02:44;;;;;;;3.42;2.45;;;;;;;14.61;92.53;100657.06;5025349;28;20412;-76
2022/10/02 09:05:46;;;;;;;11.65;5.07;;;;;;;14.62;92.66;100654.03;5053974;28;20732;-76
2022/10/02 09:08:14;;;;;;;3.42;2.08;;;;;;;14.60;93.29;100653.50;5054357;28;20421;-76
2022/10/02 09:11:00;;;;;;;4.43;1.45;;;;;;;14.61;92.93;100660.63;5054344;28;20722;-75
2022/10/02 09:14:09;;;;;;;3.95;1.30;;;;;;;14.62;93.16;100656.78;5037506;28;20399;-75
2022/10/02 09:16:43;;;;;;;4.97;1.47;;;;;;;14.69;92.94;100667.44;5052458;28;20520;-75
2022/10/02 09:19:29;;;;;;;2.35;1.20;;;;;;;14.69;92.84;100659.25;5047767;28;20428;-75
2022/10/02 09:22:06;;;;;;;2.55;1.35;;;;;;;14.73;93.55;100644.81;5042848;28;20426;-73
2022/10/02 09:24:58;;;;;;;2.55;0.80;;;;;;;14.85;92.53;100647.34;5033066;28;20881;-73
2022/10/02 09:27:42;;;;;;;2.83;1.00;;;;;;;14.90;92.24;100670.00;5052611;28;20884;-73
2022/10/02 09:30:46;;;;;;;0.95;0.88;;;;;;;14.87;92.13;100666.97;5041800;28;20432;-74
2022/10/02 09:33:42;;;;;;;2.03;0.97;;;;;;;14.86;92.46;100649.78;5030834;28;20513;-74
2022/10/02 09:36:44;;;;;;;1.03;0.90;;;;;;;14.90;92.09;100644.59;5031510;28;20397;-74
2022/10/02 09:39:50;;;;;;;5.88;1.48;;;;;;;14.92;92.05;100656.88;5043297;28;20456;-74
2022/10/02 09:42:52;;;;;;;2.20;1.30;;;;;;;14.88;92.22;100646.81;5044429;28;20402;-74
2022/10/02 09:45:42;;;;;;;4.23;2.23;;;;;;;14.88;92.17;100658.53;5041755;28;20424;-75
2022/10/02 09:48:34;;;;;;;3.00;2.38;;;;;;;14.85;92.50;100667.22;5028716;28;20474;-75
2022/10/02 09:51:30;;;;;;;3.33;1.80;;;;;;;14.95;92.21;100674.66;5025094;28;20403;-74
2022/10/02 09:54:41;;;;;;;3.40;2.30;;;;;;;14.95;92.05;100677.38;5027863;28;20938;-75
2022/10/02 09:57:30;;;;;;;3.35;1.35;;;;;;;14.90;92.14;100667.25;5028923;28;20445;-74
2022/10/02 10:00:20;;;;;;;2.70;1.15;;;;;;;14.89;92.27;100659.34;5032439;28;20420;-74
2022/10/02 10:03:28;;;;;;;1.95;0.63;;;;;;;14.94;92.18;100653.91;5036754;28;20409;-75
2022/10/02 10:06:12;;;;;;;1.60;1.05;;;;;;;14.98;92.22;100668.66;5024927;28;20865;-75
2022/10/02 10:09:05;;;;;;;5.63;1.58;;;;;;;15.01;92.30;100671.69;5048795;28;20434;-75
2022/10/02 10:11:36;;;;;;;1.50;1.40;;;;;;;14.99;92.13;100665.66;5023224;28;20413;-74
2022/10/02 10:14:32;;;;;;;2.05;1.85;;;;;;;15.02;91.97;100667.84;5044421;28;20478;-75
2022/10/02 10:17:26;;;;;;;1.73;0.50;;;;;;;14.97;91.84;100670.56;5041614;28;20401;-74
2022/10/02 10:20:29;;;;;;;1.75;1.67;;;;;;;14.93;92.02;100677.63;5045485;28;20405;-74
2022/10/02 10:23:07;;;;;;;1.45;1.35;;;;;;;14.94;92.19;100678.47;5035885;28;20470;-75
2022/10/02 10:25:50;;;;;;;0.73;0.73;;;;;;;14.96;92.04;100689.91;5039806;28;20426;-76
2022/10/02 10:28:32;;;;;;;1.85;0.80;;;;;;;14.90;92.39;100685.53;5041917;28;20800;-75
2022/10/02 10:31:04;;;;;;;2.78;1.10;;;;;;;14.88;92.48;100688.56;5041170;28;20420;-75
2022/10/02 10:33:47;;;;;;;2.75;1.50;;;;;;;14.88;92.61;100688.56;5034175;28;20417;-74
2022/10/02 10:39:25;;;;;;;1.98;1.88;;;;;;;14.93;92.46;100676.81;5039077;28;20409;-75
2022/10/02 10:41:50;;;;;;;4.50;2.10;;;;;;;14.96;92.54;100684.47;5037036;28;21008;-75
2022/10/02 10:44:50;;;;;;;2.50;1.03;;;;;;;15.03;92.46;100690.50;5029077;28;20491;-75
2022/10/02 10:47:45;;;;;;;0.52;0.52;;;;;;;15.08;92.11;100698.72;5019975;28;20496;-75
2022/10/02 10:50:52;;;;;;;0.90;0.50;;;;;;;15.09;91.93;100697.59;5040933;28;21021;-74
2022/10/02 10:53:29;;;;;;;0.80;0.50;;;;;;;15.04;92.04;100690.25;5028990;28;20409;-74
2022/10/02 10:56:18;;;;;;;2.10;0.93;;;;;;;15.10;91.87;100687.50;5036891;28;20516;-74
2022/10/02 10:59:13;;;;;;;0.70;0.70;;;;;;;15.16;91.81;100695.44;5040035;28;20409;-74
2022/10/02 11:01:52;;;;;;;3.53;3.33;;;;;;;15.17;91.91;100682.63;5045334;28;21191;-74
2022/10/02 11:04:56;;;;;;;7.38;5.40;;;;;;;15.19;91.82;100678.53;5046232;28;20419;-74
2022/10/02 11:07:49;;;;;;;1.00;0.80;;;;;;;15.16;91.88;100681.78;5036243;28;20430;-74
2022/10/02 11:10:22;;;;;;;1.73;1.73;;;;;;;15.20;92.05;100690.28;5042811;28;20402;-74
2022/10/02 11:12:50;;;;;;;3.45;2.70;;;;;;;15.23;91.96;100671.44;5044993;28;20418;-74
2022/10/02 11:15:28;;;;;;;1.55;1.30;;;;;;;15.27;91.59;100675.28;5026476;28;20416;-74
2022/10/02 11:18:21;;;;;;;2.08;1.95;;;;;;;15.23;91.48;100671.44;5037355;28;21041;-74
2022/10/02 11:21:22;;;;;;;1.50;0.75;;;;;;;15.21;91.63;100661.88;5031294;28;20470;-74
2022/10/02 11:23:53;;;;;;;1.33;1.25;;;;;;;15.27;91.78;100658.06;5037160;28;20409;-74
2022/10/02 11:26:29;;;;;;;1.00;0.77;;;;;;;15.30;91.61;100658.34;5047260;28;21097;-74
2022/10/02 11:29:20;;;;;;;1.20;0.73;;;;;;;15.34;91.53;100659.44;5039792;28;20422;-75
2022/10/02 11:31:55;;;;;;;1.25;0.90;;;;;;;15.28;91.62;100654.25;5050189;28;20409;-75
2022/10/02 11:35:01;;;;;;;0.80;0.80;;;;;;;15.28;91.65;100657.00;5039960;28;20424;-75
2022/10/02 11:38:16;;;;;;;0.70;0.70;;;;;;;15.27;91.68;100656.16;5036826;28;20417;-75
2022/10/02 11:41:03;;;;;;;0.80;0.50;;;;;;;15.30;91.64;100655.63;5007734;28;21169;-75
2022/10/02 11:43:37;;;;;;;4.32;2.13;;;;;;;15.34;91.50;100658.63;5040181;28;20506;-75
2022/10/02 11:46:27;;;;;;;2.00;1.60;;;;;;;15.36;91.52;100657.25;5037130;28;20546;-75
2022/10/02 11:48:56;;;;;;;10.73;7.65;;;;;;;15.39;91.25;100653.97;5039207;28;20419;-75
2022/10/02 11:51:49;;;;;;;14.88;13.38;;;;;;;15.44;91.06;100667.63;5019309;28;20408;-75
2022/10/02 11:54:33;;;;;;;1.20;1.20;;;;;;;15.46;91.08;100675.56;5040049;28;20492;-75
2022/10/02 11:57:20;;;;;;;3.65;3.30;;;;;;;15.42;91.35;100666.28;5037923;28;20419;-75
2022/10/02 11:59:51;;;;;;;13.45;10.57;;;;;;;15.39;91.63;100672.28;5020264;28;20420;-75
2022/10/02 12:02:25;;;;;;;2.83;2.10;;;;;;;15.39;91.49;100686.75;5041623;28;20901;-74
2022/10/02 12:05:02;;;;;;;1.20;0.90;;;;;;;15.43;91.31;100682.41;5042331;28;20428;-74
2022/10/02 12:07:57;;;;;;;1.20;0.77;;;;;;;15.45;90.93;100696.59;5048149;28;20422;-74
2022/10/02 12:10:59;;;;;;;0.90;0.60;;;;;;;15.44;90.98;100689.47;5051407;28;20410;-74
2022/10/02 12:13:46;;;;;;;1.17;0.60;;;;;;;15.49;90.88;100694.16;5043177;28;20490;-75
2022/10/02 12:16:33;;;;;;;0.98;0.60;;;;;;;15.53;90.62;100698.00;5052567;28;20405;-74
2022/10/02 12:19:19;;;;;;;0.20;0.20;;;;;;;15.50;90.79;100690.34;5046909;28;20402;-74
2022/10/02 12:28:43;;;;;;;1.80;0.50;;;;;;;15.56;90.85;100690.09;5039656;28;20440;-74
2022/10/02 12:31:23;;;;;;;4.07;1.10;;;;;;;15.71;90.72;100691.19;5035450;28;20810;-74
2022/10/02 12:34:13;;;;;;;3.88;1.50;;;;;;;15.80;90.07;100693.09;5040561;28;20784;-74
2022/10/02 12:36:55;;;;;;;0.40;0.40;;;;;;;15.79;89.99;100687.91;5040041;28;20490;-75
2022/10/02 12:39:41;;;;;;;2.22;2.13;;;;;;;15.77;89.91;100696.38;5038988;28;20490;-74
2022/10/02 12:42:10;;;;;;;2.05;1.30;;;;;;;15.74;90.01;100688.72;5041585;28;20420;-74